MAPA DE AEROPUERTO

INFORMACIÓN METAR y TAF

METAR FOR LEBA
ADDS - METARS form results

(0823 UTC 05 December 2020)
Data provider http://aviationweather.gov/metar/data/
 
METAR text: LEBA 050800Z 27003KT 9999 BKN035 06/03 Q1008
Conditions at: LEBA (CORDOBA AIRPORT , ES) observed 0800 UTC 05 December 2020
Temperature: 6.0°C (43°F)
Dewpoint: 3.0°C (37°F) [RH = 81%]
Pressure (altimeter): 29.76 inches Hg (1008.0 mb)
Winds: from the W (270 degrees) at 3 MPH (3 knots; 1.5 m/s)
Visibility: 6 or more miles (10+ km)
Ceiling: 3500 feet AGL
Clouds: broken clouds at 3500 feet AGL
Weather: no significant weather observed at this time

METAR text: LEBA 050730Z 27006KT 9999 SCT040 05/02 Q1008
Conditions at: LEBA (CORDOBA AIRPORT , ES) observed 0730 UTC 05 December 2020
Temperature: 5.0°C (41°F)
Dewpoint: 2.0°C (36°F) [RH = 81%]
Pressure (altimeter): 29.76 inches Hg (1008.0 mb)
Winds: from the W (270 degrees) at 7 MPH (6 knots; 3.1 m/s)
Visibility: 6 or more miles (10+ km)
Ceiling: at least 12,000 feet AGL
Clouds: scattered clouds at 4000 feet AGL
Weather: no significant weather observed at this time

Forecast for: LEBA (CORDOBA AIRPORT , ES)
Text: TAF LEBA 050200Z 0503/0603 25009KT 9999 FEW020 TX09/0515Z TN03/0603Z
Forecast period: 0300 UTC 05 December 2020 to 0300 UTC 06 December 2020
Forecast type: FROM: standard forecast or significant change
Winds: from the WSW (250 degrees) at 10 MPH (9 knots; 4.6 m/s)
Visibility: 6 or more miles (10+ km)
Ceiling: at least 12,000 feet AGL
Clouds: few clouds at 2000 feet AGL
Weather: no significant weather forecast for this period